Petersburg James A Johnson Airport
PAPG : now visible

Airfield :











YOU CAN JOIN US ON...

 
LOGIN :

Register | Disclaimer

   EN    FR    IT 

 









Legend :    VFR   Marginal VFR   IFR   Intensive IFR   Very Intensive IFR
Visi :
Ceiling :
>= 8 km
>= 3000ft
5 to 8 km
1000 to 3000 ft
1500m to 5 km
500 to 1000 ft
800 to 1500m
200 to 500 ft
< 800m
< 200 ft
Symbols :   Thunderstorms  Fog  Heavy snow  Heavy precipitations  Wind > 20 kt






- Airport Elevation : 111 ft
- IATA code : PSG


PAPG - Petersburg James A Johnson

CURRENT METAR :
  • 150656Z 00000KT 5SM BR OVC005 M01/M01 A3006

EXPIRED METARs :
  • 150556Z 00000KT 3SM BR OVC005 M01/M01 A3006
  • 150456Z 00000KT 1SM BR OVC004 M01/M01 A3006

TAF PAPG
Valid from the 15 at 06:00 until the 16 at 06:00 UTC


150548Z 1506/1606 VRB03KT 4SM BR BKN005
TEMPO 1506/1510 00000KT 1SM BR OVC002
FM151700 07002KT P6SM SCT020 AMD LTD TO CLD VIS AND WIND 1506/1515



MET'MAP, your aeronautical weather chart ! - Copyright ORBIFLY December 2007 - Disclaimer

ORBIFLY MET'MAP TEAM :

Programming & Development : Alexandra Zaïnal
Concept & original design : Baudouin d'Aumeries
Assistance for programming : Marc-Olivier Méhu
Technical & hardware support : Manuel Goepfert

Contact : metmap@orbifly.com




SOURCES & CREDITS :

   NOAA       Earth
Advisory